GEC1532 EGLL-EDDF
Flight info
| Callsign | GEC1532 |
|---|---|
| Flight time | 1h 5m |
| Altitude | 35000 |
| Route | DET L6 DVR UL9 KONAN UL607 SPI T180 NIVNU T847 IMCOM IMCOM1A |
| Aircraft | B77L/H-SDE1E2E3FGHIJ2J3J4J5M1RWXY/LB1D1 |
Departure
| Time | 2026-05-05 16:34 |
|---|---|
| Airport | London Heathrow Airport (EGLL) |
Arrival
| Time | 2026-05-05 17:39 |
|---|---|
| Airport | Frankfurt Main Airport (EDDF) |
| Time | Latitude | Longitude | Altitude | Speed | Heading |
|---|---|---|---|---|---|
| 2026-05-05 16:16 | 51.46196 | -0.47381 | 95 ft | 0 kts | 235° |
| 2026-05-05 16:27 | 51.46202 | -0.47366 | 93 ft | 2 kts | 248° |
| 2026-05-05 16:28 | 51.46208 | -0.47342 | 95 ft | 2 kts | 260° |
| 2026-05-05 16:28 | 51.46209 | -0.47315 | 90 ft | 2 kts | 282° |
| 2026-05-05 16:28 | 51.46203 | -0.47291 | 92 ft | 2 kts | 307° |
| 2026-05-05 16:28 | 51.46192 | -0.47272 | 93 ft | 2 kts | 329° |
| 2026-05-05 16:29 | 51.46181 | -0.47263 | 92 ft | 1 kts | 352° |
| 2026-05-05 16:29 | 51.46179 | -0.47263 | 92 ft | 0 kts | 356° |
| 2026-05-05 16:31 | 51.46238 | -0.47263 | 94 ft | 16 kts | 360° |
| 2026-05-05 16:31 | 51.46324 | -0.47342 | 94 ft | 16 kts | 288° |
| 2026-05-05 16:31 | 51.46338 | -0.47519 | 91 ft | 16 kts | 270° |
| 2026-05-05 16:31 | 51.46314 | -0.47691 | 95 ft | 16 kts | 243° |
| 2026-05-05 16:32 | 51.46261 | -0.47852 | 95 ft | 17 kts | 250° |
| 2026-05-05 16:32 | 51.46251 | -0.48035 | 93 ft | 17 kts | 269° |
| 2026-05-05 16:32 | 51.46250 | -0.48225 | 89 ft | 18 kts | 270° |
| 2026-05-05 16:32 | 51.46250 | -0.48428 | 90 ft | 18 kts | 270° |
| 2026-05-05 16:33 | 51.46269 | -0.48645 | 92 ft | 22 kts | 297° |
| 2026-05-05 16:33 | 51.46409 | -0.48748 | 92 ft | 24 kts | 357° |
| 2026-05-05 16:33 | 51.46480 | -0.48596 | 92 ft | 22 kts | 90° |
| 2026-05-05 16:33 | 51.46480 | -0.48133 | 92 ft | 73 kts | 90° |
| 2026-05-05 16:34 | 51.46484 | -0.46914 | 96 ft | 143 kts | 90° |
| 2026-05-05 16:34 | 51.46491 | -0.45016 | 197 ft | 186 kts | 88° |
| 2026-05-05 16:34 | 51.46508 | -0.42985 | 947 ft | 181 kts | 86° |
| 2026-05-05 16:34 | 51.46351 | -0.41004 | 1578 ft | 189 kts | 114° |
| 2026-05-05 16:35 | 51.45350 | -0.39466 | 1808 ft | 213 kts | 146° |
| 2026-05-05 16:35 | 51.44268 | -0.37773 | 1988 ft | 231 kts | 111° |
| 2026-05-05 16:35 | 51.43923 | -0.35185 | 2275 ft | 245 kts | 96° |
| 2026-05-05 16:35 | 51.43541 | -0.32453 | 2897 ft | 255 kts | 104° |
| 2026-05-05 16:36 | 51.43008 | -0.29722 | 3721 ft | 259 kts | 106° |
| 2026-05-05 16:36 | 51.42490 | -0.26941 | 4487 ft | 262 kts | 101° |
| 2026-05-05 16:36 | 51.42126 | -0.24072 | 5314 ft | 264 kts | 99° |
| 2026-05-05 16:36 | 51.41762 | -0.21153 | 6049 ft | 270 kts | 100° |
| 2026-05-05 16:37 | 51.41374 | -0.18196 | 6780 ft | 274 kts | 100° |
| 2026-05-05 16:37 | 51.40969 | -0.15190 | 7520 ft | 277 kts | 100° |
| 2026-05-05 16:37 | 51.40555 | -0.12148 | 8238 ft | 282 kts | 100° |
| 2026-05-05 16:37 | 51.40135 | -0.09098 | 8953 ft | 286 kts | 101° |
| 2026-05-05 16:38 | 51.39697 | -0.05929 | 9724 ft | 289 kts | 101° |
| 2026-05-05 16:38 | 51.39264 | -0.02796 | 10316 ft | 297 kts | 101° |
| 2026-05-05 16:38 | 51.38801 | 0.00550 | 10551 ft | 320 kts | 101° |
| 2026-05-05 16:38 | 51.38298 | 0.04160 | 10750 ft | 344 kts | 102° |
| 2026-05-05 16:39 | 51.37760 | 0.08013 | 11055 ft | 364 kts | 102° |
| 2026-05-05 16:39 | 51.37198 | 0.12018 | 11731 ft | 373 kts | 102° |
| 2026-05-05 16:39 | 51.36625 | 0.16089 | 12623 ft | 377 kts | 102° |
| 2026-05-05 16:39 | 51.36049 | 0.20184 | 13625 ft | 379 kts | 102° |
| 2026-05-05 16:40 | 51.35464 | 0.24321 | 14448 ft | 384 kts | 102° |
| 2026-05-05 16:40 | 51.34869 | 0.28520 | 15193 ft | 390 kts | 102° |
| 2026-05-05 16:40 | 51.34265 | 0.32774 | 15948 ft | 395 kts | 102° |
| 2026-05-05 16:40 | 51.33652 | 0.37083 | 16707 ft | 400 kts | 101° |
| 2026-05-05 16:41 | 51.33030 | 0.41446 | 17522 ft | 404 kts | 101° |
| 2026-05-05 16:41 | 51.32401 | 0.45840 | 18454 ft | 408 kts | 102° |
| 2026-05-05 16:41 | 51.31760 | 0.50299 | 19048 ft | 414 kts | 102° |
| 2026-05-05 16:41 | 51.31109 | 0.54809 | 19699 ft | 419 kts | 102° |
| 2026-05-05 16:42 | 51.30448 | 0.59365 | 20368 ft | 422 kts | 103° |
| 2026-05-05 16:42 | 51.29717 | 0.63922 | 21024 ft | 426 kts | 105° |
| 2026-05-05 16:42 | 51.28890 | 0.68489 | 21646 ft | 430 kts | 106° |
| 2026-05-05 16:42 | 51.28023 | 0.73092 | 22260 ft | 435 kts | 107° |
| 2026-05-05 16:43 | 51.27144 | 0.77736 | 22877 ft | 439 kts | 107° |
| 2026-05-05 16:43 | 51.26265 | 0.82420 | 23498 ft | 443 kts | 107° |
| 2026-05-05 16:43 | 51.25385 | 0.87152 | 24008 ft | 446 kts | 107° |
| 2026-05-05 16:43 | 51.24501 | 0.91925 | 24557 ft | 449 kts | 107° |
| 2026-05-05 16:44 | 51.23616 | 0.96716 | 25061 ft | 453 kts | 107° |
| 2026-05-05 16:44 | 51.22716 | 1.01576 | 25394 ft | 461 kts | 107° |
| 2026-05-05 16:44 | 51.21805 | 1.06492 | 25961 ft | 462 kts | 108° |
| 2026-05-05 16:44 | 51.20891 | 1.11407 | 26604 ft | 462 kts | 108° |
| 2026-05-05 16:45 | 51.19974 | 1.16326 | 27191 ft | 464 kts | 108° |
| 2026-05-05 16:45 | 51.19051 | 1.21264 | 27701 ft | 467 kts | 108° |
| 2026-05-05 16:45 | 51.18119 | 1.26236 | 28179 ft | 470 kts | 109° |
| 2026-05-05 16:45 | 51.17180 | 1.31235 | 28646 ft | 473 kts | 108° |
| 2026-05-05 16:46 | 51.16400 | 1.36274 | 29126 ft | 477 kts | 103° |
| 2026-05-05 16:46 | 51.15926 | 1.41519 | 29601 ft | 480 kts | 97° |
| 2026-05-05 16:46 | 51.15694 | 1.46815 | 30186 ft | 478 kts | 96° |
| 2026-05-05 16:46 | 51.15475 | 1.52077 | 30790 ft | 474 kts | 96° |
| 2026-05-05 16:47 | 51.15248 | 1.57310 | 31299 ft | 473 kts | 96° |
| 2026-05-05 16:47 | 51.15006 | 1.62534 | 31757 ft | 473 kts | 97° |
| 2026-05-05 16:47 | 51.14754 | 1.67746 | 32231 ft | 472 kts | 97° |
| 2026-05-05 16:47 | 51.14494 | 1.72947 | 32687 ft | 471 kts | 97° |
| 2026-05-05 16:48 | 51.14231 | 1.78128 | 33161 ft | 469 kts | 97° |
| 2026-05-05 16:48 | 51.13966 | 1.83294 | 33640 ft | 468 kts | 97° |
| 2026-05-05 16:48 | 51.13701 | 1.88449 | 34043 ft | 467 kts | 97° |
| 2026-05-05 16:48 | 51.13436 | 1.93596 | 34412 ft | 465 kts | 97° |
| 2026-05-05 16:49 | 51.13168 | 1.98724 | 34708 ft | 466 kts | 97° |
| 2026-05-05 16:49 | 51.12895 | 2.03889 | 34831 ft | 471 kts | 97° |
| 2026-05-05 16:49 | 51.12339 | 2.14300 | 34916 ft | 472 kts | 97° |
| 2026-05-05 16:50 | 51.11781 | 2.24636 | 34905 ft | 466 kts | 97° |
| 2026-05-05 16:50 | 51.11218 | 2.34895 | 34909 ft | 465 kts | 97° |
| 2026-05-05 16:51 | 51.10646 | 2.45132 | 34904 ft | 464 kts | 98° |
| 2026-05-05 16:51 | 51.10067 | 2.55356 | 34904 ft | 465 kts | 98° |
| 2026-05-05 16:52 | 51.09361 | 2.65588 | 34894 ft | 464 kts | 103° |
| 2026-05-05 16:52 | 51.07722 | 2.75458 | 34901 ft | 461 kts | 109° |
| 2026-05-05 16:53 | 51.05889 | 2.85254 | 34898 ft | 462 kts | 109° |
| 2026-05-05 16:53 | 51.04078 | 2.95053 | 34909 ft | 463 kts | 109° |
| 2026-05-05 16:54 | 51.02276 | 3.04872 | 34903 ft | 463 kts | 109° |
| 2026-05-05 16:54 | 51.00470 | 3.14690 | 34894 ft | 463 kts | 109° |
| 2026-05-05 16:55 | 50.98654 | 3.24498 | 34883 ft | 463 kts | 109° |
| 2026-05-05 16:55 | 50.96832 | 3.34286 | 34872 ft | 462 kts | 109° |
| 2026-05-05 16:56 | 50.95004 | 3.44055 | 34873 ft | 462 kts | 109° |
| 2026-05-05 16:56 | 50.93170 | 3.53807 | 34873 ft | 461 kts | 109° |
| 2026-05-05 16:57 | 50.91331 | 3.63538 | 34871 ft | 461 kts | 109° |
| 2026-05-05 16:57 | 50.89465 | 3.73247 | 34869 ft | 460 kts | 110° |
| 2026-05-05 16:58 | 50.87583 | 3.82936 | 34862 ft | 461 kts | 110° |
| 2026-05-05 16:58 | 50.85692 | 3.92635 | 34868 ft | 461 kts | 110° |
| 2026-05-05 16:59 | 50.83793 | 4.02340 | 34877 ft | 462 kts | 110° |
| 2026-05-05 16:59 | 50.81885 | 4.12043 | 34885 ft | 463 kts | 110° |
| 2026-05-05 17:00 | 50.79965 | 4.21766 | 34881 ft | 464 kts | 110° |
| 2026-05-05 17:00 | 50.78035 | 4.31484 | 34875 ft | 463 kts | 110° |
| 2026-05-05 17:01 | 50.76106 | 4.41157 | 34879 ft | 461 kts | 110° |
| 2026-05-05 17:01 | 50.74174 | 4.50794 | 34881 ft | 459 kts | 110° |
| 2026-05-05 17:02 | 50.72241 | 4.60395 | 34876 ft | 458 kts | 110° |
| 2026-05-05 17:02 | 50.70362 | 4.70000 | 34858 ft | 458 kts | 110° |
| 2026-05-05 17:03 | 50.68506 | 4.79607 | 34862 ft | 458 kts | 110° |
| 2026-05-05 17:03 | 50.66630 | 4.89212 | 34858 ft | 458 kts | 110° |
| 2026-05-05 17:04 | 50.64724 | 4.98731 | 34854 ft | 459 kts | 111° |
| 2026-05-05 17:04 | 50.62753 | 5.08299 | 34861 ft | 459 kts | 111° |
| 2026-05-05 17:05 | 50.60777 | 5.17871 | 34848 ft | 460 kts | 111° |
| 2026-05-05 17:05 | 50.58800 | 5.27435 | 34844 ft | 460 kts | 111° |
| 2026-05-05 17:06 | 50.56814 | 5.37005 | 34850 ft | 460 kts | 111° |
| 2026-05-05 17:06 | 50.54823 | 5.46554 | 34851 ft | 459 kts | 111° |
| 2026-05-05 17:07 | 50.52827 | 5.56090 | 34837 ft | 457 kts | 111° |
| 2026-05-05 17:07 | 50.51846 | 5.60769 | 34825 ft | 445 kts | 111° |
| 2026-05-05 17:07 | 50.50904 | 5.65335 | 34697 ft | 436 kts | 110° |
| 2026-05-05 17:08 | 50.50037 | 5.69878 | 34281 ft | 433 kts | 109° |
| 2026-05-05 17:08 | 50.49209 | 5.74397 | 33843 ft | 430 kts | 109° |
| 2026-05-05 17:08 | 50.48391 | 5.78891 | 33299 ft | 426 kts | 109° |
| 2026-05-05 17:08 | 50.47575 | 5.83335 | 32831 ft | 421 kts | 109° |
| 2026-05-05 17:09 | 50.46760 | 5.87727 | 32358 ft | 417 kts | 109° |
| 2026-05-05 17:09 | 50.45946 | 5.92078 | 31903 ft | 414 kts | 109° |
| 2026-05-05 17:09 | 50.45132 | 5.96394 | 31432 ft | 411 kts | 109° |
| 2026-05-05 17:09 | 50.44323 | 6.00669 | 30972 ft | 408 kts | 109° |
| 2026-05-05 17:10 | 50.43517 | 6.04917 | 30511 ft | 405 kts | 108° |
| 2026-05-05 17:10 | 50.42715 | 6.09133 | 30057 ft | 402 kts | 108° |
| 2026-05-05 17:10 | 50.41916 | 6.13325 | 29554 ft | 400 kts | 108° |
| 2026-05-05 17:10 | 50.41122 | 6.17484 | 29078 ft | 397 kts | 108° |
| 2026-05-05 17:11 | 50.40334 | 6.21607 | 28627 ft | 393 kts | 108° |
| 2026-05-05 17:11 | 50.39552 | 6.25690 | 28171 ft | 390 kts | 108° |
| 2026-05-05 17:11 | 50.38774 | 6.29740 | 27697 ft | 386 kts | 108° |
| 2026-05-05 17:11 | 50.38001 | 6.33754 | 27273 ft | 384 kts | 108° |
| 2026-05-05 17:12 | 50.37223 | 6.37736 | 26838 ft | 381 kts | 109° |
| 2026-05-05 17:12 | 50.36512 | 6.41715 | 26414 ft | 379 kts | 104° |
| 2026-05-05 17:12 | 50.36081 | 6.45779 | 26013 ft | 377 kts | 97° |
| 2026-05-05 17:12 | 50.35832 | 6.49855 | 25606 ft | 375 kts | 97° |
| 2026-05-05 17:13 | 50.35594 | 6.53903 | 25206 ft | 373 kts | 97° |
| 2026-05-05 17:13 | 50.35352 | 6.57931 | 24806 ft | 371 kts | 97° |
| 2026-05-05 17:13 | 50.35105 | 6.61937 | 24416 ft | 369 kts | 97° |
| 2026-05-05 17:13 | 50.34855 | 6.65927 | 24030 ft | 367 kts | 97° |
| 2026-05-05 17:14 | 50.34602 | 6.69895 | 23648 ft | 366 kts | 97° |
| 2026-05-05 17:14 | 50.34349 | 6.73845 | 23238 ft | 364 kts | 97° |
| 2026-05-05 17:14 | 50.34104 | 6.77784 | 22797 ft | 362 kts | 97° |
| 2026-05-05 17:14 | 50.33869 | 6.81698 | 22386 ft | 360 kts | 97° |
| 2026-05-05 17:15 | 50.33613 | 6.85577 | 21994 ft | 356 kts | 101° |
| 2026-05-05 17:15 | 50.32847 | 6.89167 | 21597 ft | 343 kts | 118° |
| 2026-05-05 17:15 | 50.32126 | 6.91353 | 21408 ft | 341 kts | 118° |
| 2026-05-05 17:15 | 50.31086 | 6.94677 | 20999 ft | 339 kts | 117° |
| 2026-05-05 17:16 | 50.30087 | 6.98007 | 20638 ft | 338 kts | 116° |
| 2026-05-05 17:16 | 50.29099 | 7.01328 | 20249 ft | 336 kts | 116° |
| 2026-05-05 17:16 | 50.28112 | 7.04643 | 19893 ft | 335 kts | 116° |
| 2026-05-05 17:16 | 50.27128 | 7.07938 | 19529 ft | 334 kts | 116° |
| 2026-05-05 17:17 | 50.26147 | 7.11222 | 19178 ft | 333 kts | 116° |
| 2026-05-05 17:17 | 50.25166 | 7.14497 | 18812 ft | 333 kts | 117° |
| 2026-05-05 17:17 | 50.24186 | 7.17769 | 18447 ft | 332 kts | 117° |
| 2026-05-05 17:17 | 50.23207 | 7.21031 | 18073 ft | 332 kts | 117° |
| 2026-05-05 17:18 | 50.22231 | 7.24283 | 17662 ft | 331 kts | 117° |
| 2026-05-05 17:18 | 50.21253 | 7.27532 | 17270 ft | 330 kts | 117° |
| 2026-05-05 17:18 | 50.20278 | 7.30765 | 16900 ft | 328 kts | 117° |
| 2026-05-05 17:18 | 50.19329 | 7.33993 | 16537 ft | 327 kts | 114° |
| 2026-05-05 17:19 | 50.18507 | 7.37299 | 16169 ft | 326 kts | 112° |
| 2026-05-05 17:19 | 50.17737 | 7.40621 | 15804 ft | 325 kts | 112° |
| 2026-05-05 17:19 | 50.16970 | 7.43937 | 15458 ft | 324 kts | 112° |
| 2026-05-05 17:19 | 50.16203 | 7.47217 | 15098 ft | 323 kts | 112° |
| 2026-05-05 17:20 | 50.15427 | 7.50509 | 14757 ft | 321 kts | 112° |
| 2026-05-05 17:20 | 50.14650 | 7.53770 | 14406 ft | 320 kts | 112° |
| 2026-05-05 17:20 | 50.13875 | 7.57014 | 14048 ft | 319 kts | 113° |
| 2026-05-05 17:20 | 50.13102 | 7.60237 | 13703 ft | 317 kts | 113° |
| 2026-05-05 17:21 | 50.12331 | 7.63443 | 13341 ft | 315 kts | 113° |
| 2026-05-05 17:21 | 50.11559 | 7.66647 | 12938 ft | 316 kts | 113° |
| 2026-05-05 17:21 | 50.10674 | 7.69769 | 12419 ft | 316 kts | 123° |
| 2026-05-05 17:22 | 50.08156 | 7.75410 | 11598 ft | 318 kts | 129° |
| 2026-05-05 17:22 | 50.06857 | 7.78174 | 11342 ft | 315 kts | 128° |
| 2026-05-05 17:22 | 50.05590 | 7.80931 | 11155 ft | 311 kts | 128° |
| 2026-05-05 17:22 | 50.04351 | 7.83680 | 10877 ft | 310 kts | 127° |
| 2026-05-05 17:23 | 50.03121 | 7.86436 | 10556 ft | 309 kts | 127° |
| 2026-05-05 17:23 | 50.01893 | 7.89183 | 10236 ft | 309 kts | 127° |
| 2026-05-05 17:23 | 50.00679 | 7.91916 | 9902 ft | 305 kts | 124° |
| 2026-05-05 17:23 | 49.99917 | 7.94965 | 9433 ft | 306 kts | 97° |
| 2026-05-05 17:24 | 50.00097 | 7.98216 | 9062 ft | 303 kts | 75° |
| 2026-05-05 17:24 | 50.00804 | 8.01254 | 8881 ft | 294 kts | 70° |
| 2026-05-05 17:24 | 50.01532 | 8.04173 | 8826 ft | 287 kts | 70° |
| 2026-05-05 17:24 | 50.02252 | 8.07061 | 8843 ft | 287 kts | 70° |
| 2026-05-05 17:25 | 50.02972 | 8.09962 | 8829 ft | 287 kts | 70° |
| 2026-05-05 17:25 | 50.03446 | 8.11878 | 8825 ft | 285 kts | 70° |
| 2026-05-05 17:25 | 50.04390 | 8.15717 | 8828 ft | 283 kts | 70° |
| 2026-05-05 17:25 | 50.05085 | 8.18564 | 8834 ft | 281 kts | 71° |
| 2026-05-05 17:26 | 50.05776 | 8.21403 | 8842 ft | 280 kts | 71° |
| 2026-05-05 17:26 | 50.06466 | 8.24243 | 8834 ft | 281 kts | 71° |
| 2026-05-05 17:26 | 50.07153 | 8.27079 | 8855 ft | 281 kts | 71° |
| 2026-05-05 17:26 | 50.07844 | 8.29927 | 8837 ft | 282 kts | 71° |
| 2026-05-05 17:27 | 50.08534 | 8.32783 | 8846 ft | 282 kts | 71° |
| 2026-05-05 17:27 | 50.09222 | 8.35638 | 8842 ft | 283 kts | 71° |
| 2026-05-05 17:27 | 50.09915 | 8.38514 | 8860 ft | 284 kts | 71° |
| 2026-05-05 17:27 | 50.10608 | 8.41396 | 8837 ft | 284 kts | 71° |
| 2026-05-05 17:28 | 50.11299 | 8.44276 | 8826 ft | 285 kts | 71° |
| 2026-05-05 17:28 | 50.11991 | 8.47163 | 8833 ft | 284 kts | 71° |
| 2026-05-05 17:28 | 50.12671 | 8.50004 | 8824 ft | 283 kts | 71° |
| 2026-05-05 17:28 | 50.13367 | 8.52916 | 8821 ft | 282 kts | 71° |
| 2026-05-05 17:29 | 50.14039 | 8.55731 | 8822 ft | 280 kts | 72° |
| 2026-05-05 17:29 | 50.14727 | 8.58613 | 8820 ft | 279 kts | 72° |
| 2026-05-05 17:29 | 50.15393 | 8.61409 | 8823 ft | 278 kts | 72° |
| 2026-05-05 17:29 | 50.16063 | 8.64231 | 8826 ft | 277 kts | 72° |
| 2026-05-05 17:30 | 50.16733 | 8.67052 | 8815 ft | 277 kts | 72° |
| 2026-05-05 17:30 | 50.17402 | 8.69869 | 8601 ft | 278 kts | 72° |
| 2026-05-05 17:30 | 50.18070 | 8.72683 | 8269 ft | 276 kts | 72° |
| 2026-05-05 17:30 | 50.18744 | 8.75529 | 7823 ft | 277 kts | 71° |
| 2026-05-05 17:31 | 50.19402 | 8.78307 | 7434 ft | 276 kts | 71° |
| 2026-05-05 17:31 | 50.20062 | 8.81103 | 7059 ft | 274 kts | 71° |
| 2026-05-05 17:31 | 50.20716 | 8.83882 | 6706 ft | 272 kts | 71° |
| 2026-05-05 17:31 | 50.21301 | 8.86655 | 6292 ft | 267 kts | 83° |
| 2026-05-05 17:32 | 50.21189 | 8.89515 | 5740 ft | 265 kts | 113° |
| 2026-05-05 17:32 | 50.20214 | 8.91857 | 5359 ft | 256 kts | 142° |
| 2026-05-05 17:32 | 50.18691 | 8.93157 | 5040 ft | 246 kts | 169° |
| 2026-05-05 17:32 | 50.17080 | 8.93098 | 4988 ft | 224 kts | 201° |
| 2026-05-05 17:33 | 50.15843 | 8.91865 | 4988 ft | 204 kts | 222° |
| 2026-05-05 17:33 | 50.14816 | 8.90353 | 5031 ft | 200 kts | 223° |
| 2026-05-05 17:33 | 50.13826 | 8.88869 | 5021 ft | 195 kts | 223° |
| 2026-05-05 17:33 | 50.12890 | 8.87371 | 4987 ft | 191 kts | 235° |
| 2026-05-05 17:34 | 50.12306 | 8.85495 | 4959 ft | 197 kts | 246° |
| 2026-05-05 17:34 | 50.11781 | 8.83479 | 4669 ft | 202 kts | 247° |
| 2026-05-05 17:34 | 50.11280 | 8.81442 | 4394 ft | 198 kts | 248° |
| 2026-05-05 17:34 | 50.10818 | 8.79514 | 4122 ft | 182 kts | 249° |
| 2026-05-05 17:35 | 50.10402 | 8.77763 | 3859 ft | 162 kts | 249° |
| 2026-05-05 17:35 | 50.10027 | 8.76191 | 3627 ft | 151 kts | 249° |
| 2026-05-05 17:35 | 50.09663 | 8.74666 | 3439 ft | 150 kts | 249° |
| 2026-05-05 17:35 | 50.09302 | 8.73153 | 3219 ft | 149 kts | 249° |
| 2026-05-05 17:36 | 50.08941 | 8.71636 | 3027 ft | 151 kts | 250° |
| 2026-05-05 17:36 | 50.08573 | 8.70095 | 2811 ft | 152 kts | 250° |
| 2026-05-05 17:36 | 50.08210 | 8.68569 | 2573 ft | 148 kts | 250° |
| 2026-05-05 17:36 | 50.07853 | 8.67075 | 2378 ft | 147 kts | 250° |
| 2026-05-05 17:37 | 50.07495 | 8.65571 | 2176 ft | 149 kts | 250° |
| 2026-05-05 17:37 | 50.07134 | 8.64061 | 1940 ft | 149 kts | 250° |
| 2026-05-05 17:37 | 50.06775 | 8.62554 | 1742 ft | 148 kts | 250° |
| 2026-05-05 17:37 | 50.06419 | 8.61060 | 1511 ft | 148 kts | 250° |
| 2026-05-05 17:38 | 50.06060 | 8.59555 | 1317 ft | 149 kts | 250° |
| 2026-05-05 17:38 | 50.05696 | 8.58048 | 1073 ft | 151 kts | 250° |
| 2026-05-05 17:38 | 50.05337 | 8.56531 | 883 ft | 149 kts | 250° |
| 2026-05-05 17:38 | 50.04980 | 8.55039 | 664 ft | 150 kts | 249° |
| 2026-05-05 17:39 | 50.04617 | 8.53524 | 436 ft | 149 kts | 249° |
| 2026-05-05 17:39 | 50.04263 | 8.52045 | 361 ft | 136 kts | 250° |
| 2026-05-05 17:39 | 50.03990 | 8.50904 | 360 ft | 86 kts | 250° |
| 2026-05-05 17:39 | 50.03838 | 8.50370 | 359 ft | 42 kts | 227° |
| 2026-05-05 17:40 | 50.03680 | 8.50195 | 359 ft | 22 kts | 193° |
| 2026-05-05 17:40 | 50.03627 | 8.50276 | 358 ft | 10 kts | 84° |
| 2026-05-05 17:40 | 50.03650 | 8.50379 | 358 ft | 10 kts | 68° |
| 2026-05-05 17:40 | 50.03676 | 8.50481 | 358 ft | 10 kts | 69° |
| 2026-05-05 17:41 | 50.03700 | 8.50584 | 357 ft | 10 kts | 70° |
| 2026-05-05 17:41 | 50.03725 | 8.50693 | 360 ft | 13 kts | 69° |
| 2026-05-05 17:41 | 50.03754 | 8.50814 | 361 ft | 9 kts | 69° |
| 2026-05-05 17:41 | 50.03777 | 8.50908 | 358 ft | 9 kts | 70° |
| 2026-05-05 17:42 | 50.03800 | 8.51003 | 360 ft | 10 kts | 69° |
| 2026-05-05 17:42 | 50.03847 | 8.51195 | 356 ft | 29 kts | 69° |
| 2026-05-05 17:42 | 50.03913 | 8.51472 | 361 ft | 24 kts | 70° |
| 2026-05-05 17:42 | 50.03964 | 8.51689 | 357 ft | 21 kts | 70° |
| 2026-05-05 17:43 | 50.04015 | 8.51901 | 361 ft | 21 kts | 69° |
| 2026-05-05 17:43 | 50.04065 | 8.52112 | 358 ft | 21 kts | 70° |
| 2026-05-05 17:43 | 50.04116 | 8.52324 | 361 ft | 21 kts | 69° |
| 2026-05-05 17:43 | 50.04168 | 8.52535 | 358 ft | 21 kts | 69° |
| 2026-05-05 17:44 | 50.04217 | 8.52747 | 361 ft | 21 kts | 71° |
| 2026-05-05 17:44 | 50.04268 | 8.52958 | 358 ft | 21 kts | 69° |
| 2026-05-05 17:44 | 50.04319 | 8.53170 | 361 ft | 21 kts | 70° |
| 2026-05-05 17:44 | 50.04369 | 8.53381 | 358 ft | 21 kts | 69° |
| 2026-05-05 17:45 | 50.04401 | 8.53600 | 361 ft | 21 kts | 83° |
| 2026-05-05 17:45 | 50.04416 | 8.53825 | 356 ft | 21 kts | 84° |
| 2026-05-05 17:45 | 50.04430 | 8.54049 | 362 ft | 21 kts | 84° |
| 2026-05-05 17:45 | 50.04445 | 8.54274 | 360 ft | 21 kts | 84° |
| 2026-05-05 17:46 | 50.04449 | 8.54484 | 358 ft | 19 kts | 97° |
| 2026-05-05 17:46 | 50.04398 | 8.54666 | 362 ft | 19 kts | 130° |
| 2026-05-05 17:46 | 50.04347 | 8.54738 | 360 ft | 0 kts | 146° |
| 2026-05-05 17:48 | 50.04310 | 8.54771 | 361 ft | 13 kts | 155° |
| 2026-05-05 17:48 | 50.04201 | 8.54833 | 361 ft | 17 kts | 160° |
| 2026-05-05 17:48 | 50.04091 | 8.54898 | 359 ft | 17 kts | 159° |
| 2026-05-05 17:48 | 50.03996 | 8.54903 | 363 ft | 15 kts | 232° |
| 2026-05-05 17:49 | 50.03957 | 8.54757 | 359 ft | 15 kts | 262° |
| 2026-05-05 17:49 | 50.04022 | 8.54660 | 361 ft | 15 kts | 7° |
| 2026-05-05 17:49 | 50.04050 | 8.54739 | 362 ft | 8 kts | 78° |
| 2026-05-05 17:49 | 50.04056 | 8.54766 | 362 ft | 0 kts | 68° |
| 2026-05-05 17:50 | 50.04056 | 8.54767 | 361 ft | 1 kts | 69° |
| 2026-05-05 17:50 | 50.04058 | 8.54776 | 360 ft | 0 kts | 69° |